sensor_id;sensor_type;location;lat;lon;timestamp;P1;durP1;ratioP1;P2;durP2;ratioP2
76023;SDS011;64719;52.124;6.226;2023-03-20T00:01:49;21.85;;;8.45;;
76023;SDS011;64719;52.124;6.226;2023-03-20T00:04:16;18.70;;;8.55;;
76023;SDS011;64719;52.124;6.226;2023-03-20T00:06:42;18.70;;;8.02;;
76023;SDS011;64719;52.124;6.226;2023-03-20T00:09:09;20.45;;;8.63;;
76023;SDS011;64719;52.124;6.226;2023-03-20T00:14:08;22.92;;;8.88;;
76023;SDS011;64719;52.124;6.226;2023-03-20T00:16:36;20.48;;;8.40;;
76023;SDS011;64719;52.124;6.226;2023-03-20T00:19:04;18.75;;;8.70;;
76023;SDS011;64719;52.124;6.226;2023-03-20T00:21:32;22.25;;;8.77;;
76023;SDS011;64719;52.124;6.226;2023-03-20T00:23:59;23.65;;;9.35;;
76023;SDS011;64719;52.124;6.226;2023-03-20T00:26:26;19.00;;;8.45;;
76023;SDS011;64719;52.124;6.226;2023-03-20T00:28:56;20.05;;;8.75;;
76023;SDS011;64719;52.124;6.226;2023-03-20T00:31:24;19.77;;;8.10;;
76023;SDS011;64719;52.124;6.226;2023-03-20T00:33:52;19.13;;;8.25;;
76023;SDS011;64719;52.124;6.226;2023-03-20T00:36:21;21.15;;;7.78;;
76023;SDS011;64719;52.124;6.226;2023-03-20T00:38:47;17.38;;;8.10;;
76023;SDS011;64719;52.124;6.226;2023-03-20T00:41:18;17.95;;;7.32;;
76023;SDS011;64719;52.124;6.226;2023-03-20T00:43:49;18.02;;;7.32;;
76023;SDS011;64719;52.124;6.226;2023-03-20T00:46:18;18.13;;;8.32;;
76023;SDS011;64719;52.124;6.226;2023-03-20T00:48:47;16.05;;;7.07;;
76023;SDS011;64719;52.124;6.226;2023-03-20T00:51:15;15.20;;;6.45;;
76023;SDS011;64719;52.124;6.226;2023-03-20T00:53:42;17.48;;;6.93;;
76023;SDS011;64719;52.124;6.226;2023-03-20T00:56:12;17.25;;;6.80;;
76023;SDS011;64719;52.124;6.226;2023-03-20T00:58:57;15.60;;;5.95;;
76023;SDS011;64719;52.124;6.226;2023-03-20T01:01:25;13.25;;;6.38;;
76023;SDS011;64719;52.124;6.226;2023-03-20T01:03:53;13.10;;;5.70;;
76023;SDS011;64719;52.124;6.226;2023-03-20T01:06:20;13.30;;;5.88;;
76023;SDS011;64719;52.124;6.226;2023-03-20T01:08:46;14.32;;;5.90;;
76023;SDS011;64719;52.124;6.226;2023-03-20T01:11:13;13.65;;;6.68;;
76023;SDS011;64719;52.124;6.226;2023-03-20T01:13:44;16.83;;;6.13;;
76023;SDS011;64719;52.124;6.226;2023-03-20T01:16:16;15.52;;;6.40;;
76023;SDS011;64719;52.124;6.226;2023-03-20T01:18:46;14.27;;;6.40;;
76023;SDS011;64719;52.124;6.226;2023-03-20T01:21:15;15.90;;;5.97;;
76023;SDS011;64719;52.124;6.226;2023-03-20T01:23:41;14.57;;;6.25;;
76023;SDS011;64719;52.124;6.226;2023-03-20T01:26:11;17.58;;;6.60;;
76023;SDS011;64719;52.124;6.226;2023-03-20T01:28:46;18.75;;;7.45;;
76023;SDS011;64719;52.124;6.226;2023-03-20T01:31:13;16.25;;;6.57;;
76023;SDS011;64719;52.124;6.226;2023-03-20T01:33:40;16.58;;;7.03;;
76023;SDS011;64719;52.124;6.226;2023-03-20T01:36:08;17.20;;;7.28;;
76023;SDS011;64719;52.124;6.226;2023-03-20T01:41:04;18.92;;;8.07;;
76023;SDS011;64719;52.124;6.226;2023-03-20T01:43:33;20.90;;;7.53;;
76023;SDS011;64719;52.124;6.226;2023-03-20T01:46:00;17.55;;;7.40;;
76023;SDS011;64719;52.124;6.226;2023-03-20T01:48:35;17.55;;;7.70;;
76023;SDS011;64719;52.124;6.226;2023-03-20T01:51:20;17.08;;;7.07;;
76023;SDS011;64719;52.124;6.226;2023-03-20T01:53:49;22.77;;;7.97;;
76023;SDS011;64719;52.124;6.226;2023-03-20T01:56:19;19.17;;;8.07;;
76023;SDS011;64719;52.124;6.226;2023-03-20T01:58:47;20.25;;;8.00;;
76023;SDS011;64719;52.124;6.226;2023-03-20T02:01:15;19.58;;;8.38;;
76023;SDS011;64719;52.124;6.226;2023-03-20T02:03:44;19.27;;;8.50;;
76023;SDS011;64719;52.124;6.226;2023-03-20T02:06:13;19.90;;;8.13;;
76023;SDS011;64719;52.124;6.226;2023-03-20T02:08:41;20.42;;;8.25;;
76023;SDS011;64719;52.124;6.226;2023-03-20T02:11:12;20.38;;;9.57;;
76023;SDS011;64719;52.124;6.226;2023-03-20T02:13:41;19.88;;;9.00;;
76023;SDS011;64719;52.124;6.226;2023-03-20T02:16:10;20.00;;;9.60;;
76023;SDS011;64719;52.124;6.226;2023-03-20T02:18:38;23.85;;;10.30;;
76023;SDS011;64719;52.124;6.226;2023-03-20T02:21:18;20.45;;;8.13;;
76023;SDS011;64719;52.124;6.226;2023-03-20T02:24:08;17.08;;;8.80;;
76023;SDS011;64719;52.124;6.226;2023-03-20T02:27:04;26.15;;;9.98;;
76023;SDS011;64719;52.124;6.226;2023-03-20T02:29:47;20.70;;;9.95;;
76023;SDS011;64719;52.124;6.226;2023-03-20T02:32:46;23.63;;;9.20;;
76023;SDS011;64719;52.124;6.226;2023-03-20T02:38:35;23.02;;;10.77;;
76023;SDS011;64719;52.124;6.226;2023-03-20T02:41:21;21.73;;;10.05;;
76023;SDS011;64719;52.124;6.226;2023-03-20T02:43:56;20.33;;;9.60;;
76023;SDS011;64719;52.124;6.226;2023-03-20T02:46:32;23.15;;;9.10;;
76023;SDS011;64719;52.124;6.226;2023-03-20T02:49:09;20.60;;;9.63;;
76023;SDS011;64719;52.124;6.226;2023-03-20T02:51:45;19.35;;;8.90;;
76023;SDS011;64719;52.124;6.226;2023-03-20T02:54:20;19.83;;;8.48;;
76023;SDS011;64719;52.124;6.226;2023-03-20T02:56:56;22.40;;;9.77;;
76023;SDS011;64719;52.124;6.226;2023-03-20T02:59:28;20.95;;;9.20;;
76023;SDS011;64719;52.124;6.226;2023-03-20T03:02:01;21.02;;;9.18;;
76023;SDS011;64719;52.124;6.226;2023-03-20T03:04:32;19.20;;;8.65;;
76023;SDS011;64719;52.124;6.226;2023-03-20T03:07:02;19.52;;;8.52;;
76023;SDS011;64719;52.124;6.226;2023-03-20T03:09:34;15.07;;;7.22;;
76023;SDS011;64719;52.124;6.226;2023-03-20T03:12:05;14.65;;;7.28;;
76023;SDS011;64719;52.124;6.226;2023-03-20T03:14:36;14.88;;;6.90;;
76023;SDS011;64719;52.124;6.226;2023-03-20T03:17:05;18.35;;;7.05;;
76023;SDS011;64719;52.124;6.226;2023-03-20T03:19:34;17.02;;;6.75;;
76023;SDS011;64719;52.124;6.226;2023-03-20T03:22:03;13.82;;;6.10;;
76023;SDS011;64719;52.124;6.226;2023-03-20T03:24:31;13.80;;;6.57;;
76023;SDS011;64719;52.124;6.226;2023-03-20T03:27:00;14.88;;;6.38;;
76023;SDS011;64719;52.124;6.226;2023-03-20T03:29:30;14.00;;;5.28;;
76023;SDS011;64719;52.124;6.226;2023-03-20T03:32:01;11.85;;;4.93;;
76023;SDS011;64719;52.124;6.226;2023-03-20T03:34:30;11.43;;;4.88;;
76023;SDS011;64719;52.124;6.226;2023-03-20T03:36:59;12.68;;;5.47;;
76023;SDS011;64719;52.124;6.226;2023-03-20T03:39:32;9.93;;;4.93;;
76023;SDS011;64719;52.124;6.226;2023-03-20T03:42:07;8.20;;;4.18;;
76023;SDS011;64719;52.124;6.226;2023-03-20T03:44:46;8.35;;;4.68;;
76023;SDS011;64719;52.124;6.226;2023-03-20T03:47:20;10.07;;;4.63;;
76023;SDS011;64719;52.124;6.226;2023-03-20T03:49:52;10.95;;;4.68;;
76023;SDS011;64719;52.124;6.226;2023-03-20T03:52:24;8.30;;;4.60;;
76023;SDS011;64719;52.124;6.226;2023-03-20T03:54:56;8.65;;;4.45;;
76023;SDS011;64719;52.124;6.226;2023-03-20T03:57:27;7.68;;;4.05;;
76023;SDS011;64719;52.124;6.226;2023-03-20T03:59:59;8.55;;;3.97;;
76023;SDS011;64719;52.124;6.226;2023-03-20T04:02:30;10.77;;;4.32;;
76023;SDS011;64719;52.124;6.226;2023-03-20T04:04:58;8.25;;;3.80;;
76023;SDS011;64719;52.124;6.226;2023-03-20T04:07:27;9.40;;;4.03;;
76023;SDS011;64719;52.124;6.226;2023-03-20T04:09:55;8.82;;;3.97;;
76023;SDS011;64719;52.124;6.226;2023-03-20T04:12:31;14.02;;;4.68;;
76023;SDS011;64719;52.124;6.226;2023-03-20T04:14:59;9.10;;;4.00;;
76023;SDS011;64719;52.124;6.226;2023-03-20T04:17:26;9.32;;;3.55;;
76023;SDS011;64719;52.124;6.226;2023-03-20T04:19:53;6.05;;;3.50;;
76023;SDS011;64719;52.124;6.226;2023-03-20T04:22:19;7.72;;;3.45;;
76023;SDS011;64719;52.124;6.226;2023-03-20T04:24:46;10.43;;;3.78;;
76023;SDS011;64719;52.124;6.226;2023-03-20T04:27:14;6.93;;;2.95;;
76023;SDS011;64719;52.124;6.226;2023-03-20T04:29:40;8.48;;;3.03;;
76023;SDS011;64719;52.124;6.226;2023-03-20T04:32:07;5.47;;;3.00;;
76023;SDS011;64719;52.124;6.226;2023-03-20T04:34:33;6.78;;;3.03;;
76023;SDS011;64719;52.124;6.226;2023-03-20T04:37:00;8.32;;;3.60;;
76023;SDS011;64719;52.124;6.226;2023-03-20T04:39:27;11.15;;;3.63;;
76023;SDS011;64719;52.124;6.226;2023-03-20T04:41:53;5.78;;;3.03;;
76023;SDS011;64719;52.124;6.226;2023-03-20T04:44:21;11.75;;;3.88;;
76023;SDS011;64719;52.124;6.226;2023-03-20T04:46:48;8.55;;;3.92;;
76023;SDS011;64719;52.124;6.226;2023-03-20T04:49:14;8.82;;;3.72;;
76023;SDS011;64719;52.124;6.226;2023-03-20T04:51:41;9.85;;;4.35;;
76023;SDS011;64719;52.124;6.226;2023-03-20T04:54:08;9.32;;;4.32;;
76023;SDS011;64719;52.124;6.226;2023-03-20T04:56:34;12.55;;;4.20;;
76023;SDS011;64719;52.124;6.226;2023-03-20T04:59:01;9.43;;;4.20;;
76023;SDS011;64719;52.124;6.226;2023-03-20T05:01:29;8.68;;;4.20;;
76023;SDS011;64719;52.124;6.226;2023-03-20T05:03:55;8.98;;;4.05;;
76023;SDS011;64719;52.124;6.226;2023-03-20T05:06:24;12.55;;;5.15;;
76023;SDS011;64719;52.124;6.226;2023-03-20T05:08:51;14.40;;;4.60;;
76023;SDS011;64719;52.124;6.226;2023-03-20T05:11:18;12.43;;;4.75;;
76023;SDS011;64719;52.124;6.226;2023-03-20T05:13:44;12.02;;;4.57;;
76023;SDS011;64719;52.124;6.226;2023-03-20T05:16:11;11.80;;;5.22;;
76023;SDS011;64719;52.124;6.226;2023-03-20T05:18:38;16.55;;;6.20;;
76023;SDS011;64719;52.124;6.226;2023-03-20T05:21:05;14.32;;;5.78;;
76023;SDS011;64719;52.124;6.226;2023-03-20T05:23:33;15.25;;;5.60;;
76023;SDS011;64719;52.124;6.226;2023-03-20T05:26:00;15.65;;;6.13;;
76023;SDS011;64719;52.124;6.226;2023-03-20T05:28:26;17.20;;;6.70;;
76023;SDS011;64719;52.124;6.226;2023-03-20T05:30:53;21.83;;;7.70;;
76023;SDS011;64719;52.124;6.226;2023-03-20T05:33:20;24.35;;;8.95;;
76023;SDS011;64719;52.124;6.226;2023-03-20T05:35:48;25.77;;;9.43;;
76023;SDS011;64719;52.124;6.226;2023-03-20T05:38:14;25.02;;;9.93;;
76023;SDS011;64719;52.124;6.226;2023-03-20T05:40:41;22.60;;;9.43;;
76023;SDS011;64719;52.124;6.226;2023-03-20T05:43:07;22.88;;;10.13;;
76023;SDS011;64719;52.124;6.226;2023-03-20T05:45:34;27.88;;;11.07;;
76023;SDS011;64719;52.124;6.226;2023-03-20T05:48:00;24.25;;;10.73;;
76023;SDS011;64719;52.124;6.226;2023-03-20T05:50:27;22.83;;;10.10;;
76023;SDS011;64719;52.124;6.226;2023-03-20T05:52:55;24.48;;;10.45;;
76023;SDS011;64719;52.124;6.226;2023-03-20T05:55:21;24.65;;;9.60;;
76023;SDS011;64719;52.124;6.226;2023-03-20T05:57:48;23.98;;;10.93;;
76023;SDS011;64719;52.124;6.226;2023-03-20T06:00:15;23.63;;;10.13;;
76023;SDS011;64719;52.124;6.226;2023-03-20T06:02:42;24.25;;;9.93;;
76023;SDS011;64719;52.124;6.226;2023-03-20T06:05:08;27.10;;;11.13;;
76023;SDS011;64719;52.124;6.226;2023-03-20T06:07:35;22.88;;;9.95;;
76023;SDS011;64719;52.124;6.226;2023-03-20T06:10:03;23.77;;;10.38;;
76023;SDS011;64719;52.124;6.226;2023-03-20T06:12:30;22.05;;;9.45;;
76023;SDS011;64719;52.124;6.226;2023-03-20T06:14:56;23.98;;;10.32;;
76023;SDS011;64719;52.124;6.226;2023-03-20T06:17:23;22.70;;;10.02;;
76023;SDS011;64719;52.124;6.226;2023-03-20T06:19:50;22.95;;;10.13;;
76023;SDS011;64719;52.124;6.226;2023-03-20T06:22:16;21.38;;;10.45;;
76023;SDS011;64719;52.124;6.226;2023-03-20T06:24:43;21.85;;;9.25;;
76023;SDS011;64719;52.124;6.226;2023-03-20T06:27:11;20.55;;;8.25;;
76023;SDS011;64719;52.124;6.226;2023-03-20T06:29:38;22.80;;;8.95;;
76023;SDS011;64719;52.124;6.226;2023-03-20T06:32:05;20.23;;;8.77;;
76023;SDS011;64719;52.124;6.226;2023-03-20T06:34:32;21.30;;;8.27;;
76023;SDS011;64719;52.124;6.226;2023-03-20T06:36:59;18.30;;;8.02;;
76023;SDS011;64719;52.124;6.226;2023-03-20T06:39:26;18.27;;;7.88;;
76023;SDS011;64719;52.124;6.226;2023-03-20T06:41:53;20.73;;;8.50;;
76023;SDS011;64719;52.124;6.226;2023-03-20T06:44:21;16.52;;;8.00;;
76023;SDS011;64719;52.124;6.226;2023-03-20T06:46:48;18.80;;;7.82;;
76023;SDS011;64719;52.124;6.226;2023-03-20T06:49:14;21.50;;;7.40;;
76023;SDS011;64719;52.124;6.226;2023-03-20T06:51:41;18.88;;;7.07;;
76023;SDS011;64719;52.124;6.226;2023-03-20T06:54:09;17.45;;;7.35;;
76023;SDS011;64719;52.124;6.226;2023-03-20T06:56:35;15.38;;;7.45;;
76023;SDS011;64719;52.124;6.226;2023-03-20T06:59:02;16.13;;;6.80;;
76023;SDS011;64719;52.124;6.226;2023-03-20T07:01:30;15.77;;;6.88;;
76023;SDS011;64719;52.124;6.226;2023-03-20T07:03:56;17.90;;;6.70;;
76023;SDS011;64719;52.124;6.226;2023-03-20T07:06:23;15.93;;;7.05;;
76023;SDS011;64719;52.124;6.226;2023-03-20T07:08:49;18.17;;;7.32;;
76023;SDS011;64719;52.124;6.226;2023-03-20T07:11:16;20.77;;;7.38;;
76023;SDS011;64719;52.124;6.226;2023-03-20T07:13:43;15.05;;;7.45;;
76023;SDS011;64719;52.124;6.226;2023-03-20T07:16:10;19.92;;;7.90;;
76023;SDS011;64719;52.124;6.226;2023-03-20T07:18:38;17.13;;;7.70;;
76023;SDS011;64719;52.124;6.226;2023-03-20T07:21:05;12.90;;;6.45;;
76023;SDS011;64719;52.124;6.226;2023-03-20T07:23:32;15.60;;;7.03;;
76023;SDS011;64719;52.124;6.226;2023-03-20T07:26:00;16.02;;;6.90;;
76023;SDS011;64719;52.124;6.226;2023-03-20T07:28:27;15.95;;;7.35;;
76023;SDS011;64719;52.124;6.226;2023-03-20T07:30:54;16.92;;;6.35;;
76023;SDS011;64719;52.124;6.226;2023-03-20T07:33:20;17.30;;;6.47;;
76023;SDS011;64719;52.124;6.226;2023-03-20T07:35:51;21.90;;;6.75;;
76023;SDS011;64719;52.124;6.226;2023-03-20T07:38:18;16.73;;;6.22;;
76023;SDS011;64719;52.124;6.226;2023-03-20T07:40:45;16.30;;;6.78;;
76023;SDS011;64719;52.124;6.226;2023-03-20T07:43:12;16.35;;;6.97;;
76023;SDS011;64719;52.124;6.226;2023-03-20T07:45:39;15.55;;;7.00;;
76023;SDS011;64719;52.124;6.226;2023-03-20T07:48:06;17.63;;;6.80;;
76023;SDS011;64719;52.124;6.226;2023-03-20T07:50:32;11.43;;;5.93;;
76023;SDS011;64719;52.124;6.226;2023-03-20T07:53:00;13.98;;;7.03;;
76023;SDS011;64719;52.124;6.226;2023-03-20T07:55:27;14.55;;;6.18;;
76023;SDS011;64719;52.124;6.226;2023-03-20T07:57:53;13.93;;;6.10;;
76023;SDS011;64719;52.124;6.226;2023-03-20T08:00:20;13.60;;;5.95;;
76023;SDS011;64719;52.124;6.226;2023-03-20T08:02:47;13.95;;;6.75;;
76023;SDS011;64719;52.124;6.226;2023-03-20T08:05:13;16.58;;;7.55;;
76023;SDS011;64719;52.124;6.226;2023-03-20T08:07:40;16.00;;;6.57;;
76023;SDS011;64719;52.124;6.226;2023-03-20T08:10:08;11.85;;;6.40;;
76023;SDS011;64719;52.124;6.226;2023-03-20T08:12:36;14.43;;;7.78;;
76023;SDS011;64719;52.124;6.226;2023-03-20T08:15:02;13.02;;;5.60;;
76023;SDS011;64719;52.124;6.226;2023-03-20T08:17:29;13.98;;;5.82;;
76023;SDS011;64719;52.124;6.226;2023-03-20T08:19:56;14.25;;;6.07;;
76023;SDS011;64719;52.124;6.226;2023-03-20T08:22:22;18.60;;;7.53;;
76023;SDS011;64719;52.124;6.226;2023-03-20T08:24:49;12.95;;;6.35;;
76023;SDS011;64719;52.124;6.226;2023-03-20T08:27:17;12.50;;;6.22;;
76023;SDS011;64719;52.124;6.226;2023-03-20T08:29:44;15.10;;;6.50;;
76023;SDS011;64719;52.124;6.226;2023-03-20T08:32:10;12.57;;;6.13;;
76023;SDS011;64719;52.124;6.226;2023-03-20T08:34:37;13.25;;;6.15;;
76023;SDS011;64719;52.124;6.226;2023-03-20T08:37:03;12.52;;;5.85;;
76023;SDS011;64719;52.124;6.226;2023-03-20T08:39:31;15.93;;;5.82;;
76023;SDS011;64719;52.124;6.226;2023-03-20T08:41:59;12.05;;;6.40;;
76023;SDS011;64719;52.124;6.226;2023-03-20T08:44:28;11.20;;;5.60;;
76023;SDS011;64719;52.124;6.226;2023-03-20T08:46:54;15.05;;;6.05;;
76023;SDS011;64719;52.124;6.226;2023-03-20T08:49:21;11.55;;;5.53;;
76023;SDS011;64719;52.124;6.226;2023-03-20T08:51:47;13.15;;;5.88;;
76023;SDS011;64719;52.124;6.226;2023-03-20T08:54:14;13.48;;;5.55;;
76023;SDS011;64719;52.124;6.226;2023-03-20T08:56:42;16.23;;;5.72;;
76023;SDS011;64719;52.124;6.226;2023-03-20T08:59:09;20.30;;;6.60;;
76023;SDS011;64719;52.124;6.226;2023-03-20T09:01:37;16.48;;;6.07;;
76023;SDS011;64719;52.124;6.226;2023-03-20T09:04:04;15.30;;;6.15;;
76023;SDS011;64719;52.124;6.226;2023-03-20T09:06:30;12.90;;;6.05;;
76023;SDS011;64719;52.124;6.226;2023-03-20T09:08:57;12.80;;;5.22;;
76023;SDS011;64719;52.124;6.226;2023-03-20T09:11:24;11.18;;;5.55;;
76023;SDS011;64719;52.124;6.226;2023-03-20T09:13:51;12.63;;;5.43;;
76023;SDS011;64719;52.124;6.226;2023-03-20T09:16:17;14.45;;;6.35;;
76023;SDS011;64719;52.124;6.226;2023-03-20T09:18:45;12.77;;;5.35;;
76023;SDS011;64719;52.124;6.226;2023-03-20T09:21:13;9.63;;;5.05;;
76023;SDS011;64719;52.124;6.226;2023-03-20T09:23:39;12.50;;;5.18;;
76023;SDS011;64719;52.124;6.226;2023-03-20T09:26:06;14.65;;;5.70;;
76023;SDS011;64719;52.124;6.226;2023-03-20T09:28:32;12.23;;;5.38;;
76023;SDS011;64719;52.124;6.226;2023-03-20T09:30:59;13.43;;;5.40;;
76023;SDS011;64719;52.124;6.226;2023-03-20T09:33:26;9.55;;;4.57;;
76023;SDS011;64719;52.124;6.226;2023-03-20T09:35:54;11.27;;;5.70;;
76023;SDS011;64719;52.124;6.226;2023-03-20T09:38:20;10.55;;;5.32;;
76023;SDS011;64719;52.124;6.226;2023-03-20T09:40:49;11.40;;;4.63;;
76023;SDS011;64719;52.124;6.226;2023-03-20T09:43:26;10.00;;;4.97;;
76023;SDS011;64719;52.124;6.226;2023-03-20T09:46:06;9.70;;;5.18;;
76023;SDS011;64719;52.124;6.226;2023-03-20T09:48:40;8.82;;;4.63;;
76023;SDS011;64719;52.124;6.226;2023-03-20T09:51:17;13.07;;;4.88;;
76023;SDS011;64719;52.124;6.226;2023-03-20T09:53:50;11.65;;;4.45;;
76023;SDS011;64719;52.124;6.226;2023-03-20T09:56:21;10.13;;;4.55;;
76023;SDS011;64719;52.124;6.226;2023-03-20T09:58:52;11.13;;;5.22;;
76023;SDS011;64719;52.124;6.226;2023-03-20T10:01:21;9.30;;;4.38;;
76023;SDS011;64719;52.124;6.226;2023-03-20T10:03:52;11.32;;;4.70;;
76023;SDS011;64719;52.124;6.226;2023-03-20T10:06:22;9.93;;;4.47;;
76023;SDS011;64719;52.124;6.226;2023-03-20T10:08:49;10.38;;;4.38;;
76023;SDS011;64719;52.124;6.226;2023-03-20T10:11:23;10.50;;;4.30;;
76023;SDS011;64719;52.124;6.226;2023-03-20T10:14:15;8.75;;;4.05;;
76023;SDS011;64719;52.124;6.226;2023-03-20T10:16:51;9.38;;;4.88;;
76023;SDS011;64719;52.124;6.226;2023-03-20T10:19:27;8.75;;;4.30;;
76023;SDS011;64719;52.124;6.226;2023-03-20T10:21:59;10.35;;;3.55;;
76023;SDS011;64719;52.124;6.226;2023-03-20T10:24:27;8.52;;;3.20;;
76023;SDS011;64719;52.124;6.226;2023-03-20T10:26:58;6.75;;;3.47;;
76023;SDS011;64719;52.124;6.226;2023-03-20T10:29:32;9.85;;;3.28;;
76023;SDS011;64719;52.124;6.226;2023-03-20T10:32:07;9.07;;;3.35;;
76023;SDS011;64719;52.124;6.226;2023-03-20T10:34:47;6.97;;;2.80;;
76023;SDS011;64719;52.124;6.226;2023-03-20T10:37:27;5.75;;;3.00;;
76023;SDS011;64719;52.124;6.226;2023-03-20T10:40:09;7.32;;;3.05;;
76023;SDS011;64719;52.124;6.226;2023-03-20T10:42:46;7.82;;;3.13;;
76023;SDS011;64719;52.124;6.226;2023-03-20T10:45:18;7.47;;;3.17;;
76023;SDS011;64719;52.124;6.226;2023-03-20T10:47:55;8.35;;;3.38;;
76023;SDS011;64719;52.124;6.226;2023-03-20T10:50:27;9.30;;;3.58;;
76023;SDS011;64719;52.124;6.226;2023-03-20T10:52:58;14.63;;;6.63;;
76023;SDS011;64719;52.124;6.226;2023-03-20T10:55:29;7.47;;;3.97;;
76023;SDS011;64719;52.124;6.226;2023-03-20T10:58:01;7.50;;;3.53;;
76023;SDS011;64719;52.124;6.226;2023-03-20T11:00:34;11.07;;;3.97;;
76023;SDS011;64719;52.124;6.226;2023-03-20T11:03:00;10.73;;;3.92;;
76023;SDS011;64719;52.124;6.226;2023-03-20T11:05:27;14.32;;;7.43;;
76023;SDS011;64719;52.124;6.226;2023-03-20T11:08:01;6.05;;;3.30;;
76023;SDS011;64719;52.124;6.226;2023-03-20T11:10:30;7.57;;;3.42;;
76023;SDS011;64719;52.124;6.226;2023-03-20T11:15:30;10.73;;;4.68;;
76023;SDS011;64719;52.124;6.226;2023-03-20T11:17:59;9.63;;;5.22;;
76023;SDS011;64719;52.124;6.226;2023-03-20T11:20:31;6.93;;;3.58;;
76023;SDS011;64719;52.124;6.226;2023-03-20T11:23:01;6.70;;;3.20;;
76023;SDS011;64719;52.124;6.226;2023-03-20T11:25:30;7.63;;;3.67;;
76023;SDS011;64719;52.124;6.226;2023-03-20T11:30:44;6.10;;;3.10;;
76023;SDS011;64719;52.124;6.226;2023-03-20T11:33:11;10.00;;;3.85;;
76023;SDS011;64719;52.124;6.226;2023-03-20T11:35:43;5.78;;;3.35;;
76023;SDS011;64719;52.124;6.226;2023-03-20T11:38:13;7.95;;;3.30;;
76023;SDS011;64719;52.124;6.226;2023-03-20T11:40:42;16.98;;;8.13;;
76023;SDS011;64719;52.124;6.226;2023-03-20T11:43:10;6.93;;;3.38;;
76023;SDS011;64719;52.124;6.226;2023-03-20T11:45:39;12.98;;;6.43;;
76023;SDS011;64719;52.124;6.226;2023-03-20T11:48:13;6.32;;;3.80;;
76023;SDS011;64719;52.124;6.226;2023-03-20T11:50:44;12.35;;;5.65;;
76023;SDS011;64719;52.124;6.226;2023-03-20T11:53:23;8.05;;;3.50;;
76023;SDS011;64719;52.124;6.226;2023-03-20T11:58:45;8.18;;;3.10;;
76023;SDS011;64719;52.124;6.226;2023-03-20T12:01:20;10.13;;;3.95;;
76023;SDS011;64719;52.124;6.226;2023-03-20T12:03:49;11.27;;;5.75;;
76023;SDS011;64719;52.124;6.226;2023-03-20T12:06:20;8.52;;;4.20;;
76023;SDS011;64719;52.124;6.226;2023-03-20T12:08:53;5.05;;;2.60;;
76023;SDS011;64719;52.124;6.226;2023-03-20T12:11:35;8.80;;;4.63;;
76023;SDS011;64719;52.124;6.226;2023-03-20T12:14:11;11.45;;;6.85;;
76023;SDS011;64719;52.124;6.226;2023-03-20T12:16:44;8.40;;;4.03;;
76023;SDS011;64719;52.124;6.226;2023-03-20T12:19:15;6.22;;;2.97;;
76023;SDS011;64719;52.124;6.226;2023-03-20T12:21:46;8.30;;;4.55;;
76023;SDS011;64719;52.124;6.226;2023-03-20T12:24:24;9.60;;;4.00;;
76023;SDS011;64719;52.124;6.226;2023-03-20T12:26:57;6.53;;;3.30;;
76023;SDS011;64719;52.124;6.226;2023-03-20T12:29:34;8.27;;;3.58;;
76023;SDS011;64719;52.124;6.226;2023-03-20T12:32:08;6.97;;;3.00;;
76023;SDS011;64719;52.124;6.226;2023-03-20T12:37:10;9.05;;;3.88;;
76023;SDS011;64719;52.124;6.226;2023-03-20T12:39:41;6.78;;;3.38;;
76023;SDS011;64719;52.124;6.226;2023-03-20T12:42:14;8.15;;;3.53;;
76023;SDS011;64719;52.124;6.226;2023-03-20T12:44:52;6.80;;;3.60;;
76023;SDS011;64719;52.124;6.226;2023-03-20T12:50:31;6.53;;;3.35;;
76023;SDS011;64719;52.124;6.226;2023-03-20T12:53:04;10.18;;;3.83;;
76023;SDS011;64719;52.124;6.226;2023-03-20T12:55:48;7.85;;;3.63;;
76023;SDS011;64719;52.124;6.226;2023-03-20T12:58:26;8.60;;;3.65;;
76023;SDS011;64719;52.124;6.226;2023-03-20T13:01:01;14.95;;;4.22;;
76023;SDS011;64719;52.124;6.226;2023-03-20T13:03:34;8.90;;;4.57;;
76023;SDS011;64719;52.124;6.226;2023-03-20T13:06:13;11.27;;;4.90;;
76023;SDS011;64719;52.124;6.226;2023-03-20T13:09:05;13.82;;;4.85;;
76023;SDS011;64719;52.124;6.226;2023-03-20T13:11:53;9.20;;;4.30;;
76023;SDS011;64719;52.124;6.226;2023-03-20T13:14:30;8.77;;;4.30;;
76023;SDS011;64719;52.124;6.226;2023-03-20T13:17:04;8.75;;;4.97;;
76023;SDS011;64719;52.124;6.226;2023-03-20T13:19:39;8.38;;;5.05;;
76023;SDS011;64719;52.124;6.226;2023-03-20T13:22:12;14.40;;;4.63;;
76023;SDS011;64719;52.124;6.226;2023-03-20T13:24:43;8.82;;;4.70;;
76023;SDS011;64719;52.124;6.226;2023-03-20T13:27:18;14.55;;;5.90;;
76023;SDS011;64719;52.124;6.226;2023-03-20T13:29:52;12.43;;;8.52;;
76023;SDS011;64719;52.124;6.226;2023-03-20T13:32:27;9.43;;;5.53;;
76023;SDS011;64719;52.124;6.226;2023-03-20T13:35:12;11.15;;;5.75;;
76023;SDS011;64719;52.124;6.226;2023-03-20T13:37:49;14.90;;;6.72;;
76023;SDS011;64719;52.124;6.226;2023-03-20T13:40:20;13.80;;;6.90;;
76023;SDS011;64719;52.124;6.226;2023-03-20T13:42:51;12.82;;;5.70;;
76023;SDS011;64719;52.124;6.226;2023-03-20T13:45:24;12.68;;;5.82;;
76023;SDS011;64719;52.124;6.226;2023-03-20T13:47:53;16.58;;;6.38;;
76023;SDS011;64719;52.124;6.226;2023-03-20T13:50:26;12.45;;;6.47;;
76023;SDS011;64719;52.124;6.226;2023-03-20T13:53:11;14.75;;;6.15;;
76023;SDS011;64719;52.124;6.226;2023-03-20T13:55:47;18.10;;;7.40;;
76023;SDS011;64719;52.124;6.226;2023-03-20T13:58:30;10.90;;;6.10;;
76023;SDS011;64719;52.124;6.226;2023-03-20T14:01:06;15.13;;;6.65;;
76023;SDS011;64719;52.124;6.226;2023-03-20T14:03:42;15.85;;;6.65;;
76023;SDS011;64719;52.124;6.226;2023-03-20T14:06:17;12.02;;;6.93;;
76023;SDS011;64719;52.124;6.226;2023-03-20T14:09:22;19.13;;;8.05;;
76023;SDS011;64719;52.124;6.226;2023-03-20T14:14:22;15.07;;;6.32;;
76023;SDS011;64719;52.124;6.226;2023-03-20T14:16:59;18.58;;;7.10;;
76023;SDS011;64719;52.124;6.226;2023-03-20T14:19:27;17.73;;;8.10;;
76023;SDS011;64719;52.124;6.226;2023-03-20T14:21:54;13.15;;;6.85;;
76023;SDS011;64719;52.124;6.226;2023-03-20T14:24:22;17.45;;;7.32;;
76023;SDS011;64719;52.124;6.226;2023-03-20T14:26:51;21.10;;;7.30;;
76023;SDS011;64719;52.124;6.226;2023-03-20T14:29:31;15.45;;;7.00;;
76023;SDS011;64719;52.124;6.226;2023-03-20T14:32:03;13.98;;;7.28;;
76023;SDS011;64719;52.124;6.226;2023-03-20T14:34:48;14.88;;;7.70;;
76023;SDS011;64719;52.124;6.226;2023-03-20T14:37:26;17.80;;;7.43;;
76023;SDS011;64719;52.124;6.226;2023-03-20T14:40:01;19.67;;;7.95;;
76023;SDS011;64719;52.124;6.226;2023-03-20T14:42:38;15.57;;;9.15;;
76023;SDS011;64719;52.124;6.226;2023-03-20T14:45:24;19.95;;;9.90;;
76023;SDS011;64719;52.124;6.226;2023-03-20T14:47:57;19.20;;;8.13;;
76023;SDS011;64719;52.124;6.226;2023-03-20T14:50:29;15.95;;;8.80;;
76023;SDS011;64719;52.124;6.226;2023-03-20T14:53:01;16.83;;;8.65;;
76023;SDS011;64719;52.124;6.226;2023-03-20T14:55:45;17.38;;;10.02;;
76023;SDS011;64719;52.124;6.226;2023-03-20T15:01:27;20.20;;;8.93;;
76023;SDS011;64719;52.124;6.226;2023-03-20T15:06:42;16.42;;;8.50;;
76023;SDS011;64719;52.124;6.226;2023-03-20T15:09:13;21.40;;;9.98;;
76023;SDS011;64719;52.124;6.226;2023-03-20T15:11:41;15.73;;;8.52;;
76023;SDS011;64719;52.124;6.226;2023-03-20T15:14:08;17.27;;;8.07;;
76023;SDS011;64719;52.124;6.226;2023-03-20T15:16:37;14.10;;;8.00;;
76023;SDS011;64719;52.124;6.226;2023-03-20T15:19:05;20.05;;;9.65;;
76023;SDS011;64719;52.124;6.226;2023-03-20T15:21:40;17.23;;;8.75;;
76023;SDS011;64719;52.124;6.226;2023-03-20T15:24:14;20.80;;;9.85;;
76023;SDS011;64719;52.124;6.226;2023-03-20T15:26:44;16.98;;;8.75;;
76023;SDS011;64719;52.124;6.226;2023-03-20T15:29:11;21.73;;;9.43;;